Time;durP1;ratioP1;P1;durP2;ratioP2;P2;SDS_P1;SDS_P2;PMS_P1;PMS_P2;Temp;Humidity;BMP_temperature;BMP_pressure;BME280_temperature;BME280_humidity;BME280_pressure;Samples;Min_cycle;Max_cycle;Signal;HPM_P1;HPM_P2
2023/10/12 00:00:24;;;;;;;26.92;10.52;;;9.40;99.90;;;;;;5007937;28;20389;-62
2023/10/12 00:02:50;;;;;;;17.65;9.05;;;9.40;99.90;;;;;;4994650;28;20062;-61
2023/10/12 00:05:19;;;;;;;21.90;10.75;;;9.40;99.90;;;;;;4996863;28;20042;-61
2023/10/12 00:07:49;;;;;;;27.38;10.60;;;9.30;99.90;;;;;;4989535;28;20512;-61
2023/10/12 00:12:46;;;;;;;28.27;11.23;;;9.30;99.90;;;;;;5006448;28;20061;-62
2023/10/12 00:15:25;;;;;;;27.92;11.27;;;9.30;99.90;;;;;;4987845;28;20058;-62
2023/10/12 00:17:57;;;;;;;27.45;11.65;;;9.30;99.90;;;;;;5003142;28;20054;-61
2023/10/12 00:23:13;;;;;;;30.75;11.93;;;9.20;99.90;;;;;;4996893;28;20054;-61
2023/10/12 00:25:46;;;;;;;30.15;11.02;;;9.20;99.90;;;;;;4999926;28;20489;-62
2023/10/12 00:28:19;;;;;;;26.42;10.77;;;9.20;99.90;;;;;;4993115;28;20076;-61
2023/10/12 00:30:49;;;;;;;24.55;10.60;;;9.20;99.90;;;;;;5003024;28;20050;-60
2023/10/12 00:33:18;;;;;;;20.92;10.30;;;9.10;99.90;;;;;;5008490;28;20209;-61
2023/10/12 00:35:53;;;;;;;21.20;10.55;;;9.10;99.90;;;;;;5001565;28;20837;-62
2023/10/12 00:38:24;;;;;;;20.98;10.85;;;9.10;99.90;;;;;;4996069;28;20069;-60
2023/10/12 00:41:04;;;;;;;21.88;10.43;;;9.10;99.90;;;;;;5007104;28;20045;-61
2023/10/12 00:43:36;;;;;;;27.05;10.55;;;9.10;99.90;;;;;;5006092;28;20057;-60
2023/10/12 00:46:40;;;;;;;20.35;10.15;;;9.10;99.90;;;;;;4993770;28;20038;-61
2023/10/12 00:51:51;;;;;;;23.20;11.38;;;9.00;99.90;;;;;;5002704;28;20505;-60
2023/10/12 00:54:41;;;;;;;20.58;10.75;;;9.00;99.90;;;;;;4990927;28;20061;-61
2023/10/12 00:57:09;;;;;;;22.27;10.83;;;9.00;99.90;;;;;;5008448;28;20057;-59
2023/10/12 00:59:38;;;;;;;23.55;11.43;;;8.90;99.90;;;;;;5008828;28;20053;-60
2023/10/12 01:02:20;;;;;;;30.02;11.98;;;8.90;99.90;;;;;;5005401;28;20062;-61
2023/10/12 01:04:48;;;;;;;33.33;11.65;;;8.90;99.90;;;;;;4984238;28;20061;-60
2023/10/12 01:07:25;;;;;;;27.77;12.07;;;8.90;99.90;;;;;;5000815;28;20049;-60
2023/10/12 01:10:12;;;;;;;30.17;13.50;;;8.90;99.90;;;;;;5003433;28;20049;-60
2023/10/12 01:12:40;;;;;;;24.60;12.88;;;8.90;99.90;;;;;;4998660;28;20614;-60
2023/10/12 01:15:11;;;;;;;32.38;13.15;;;8.80;99.90;;;;;;5007922;28;20038;-60
2023/10/12 01:17:40;;;;;;;32.65;12.02;;;8.80;99.90;;;;;;5004294;28;20038;-61
2023/10/12 01:20:16;;;;;;;36.38;13.20;;;8.80;99.90;;;;;;5005629;28;20049;-61
2023/10/12 01:22:47;;;;;;;29.85;13.88;;;8.80;99.90;;;;;;4998804;28;20410;-61
2023/10/12 01:25:27;;;;;;;25.77;12.45;;;8.80;99.90;;;;;;4998489;28;20426;-61
2023/10/12 01:27:55;;;;;;;24.10;13.43;;;8.80;99.90;;;;;;4996192;28;20559;-59
2023/10/12 01:30:23;;;;;;;33.25;13.70;;;8.80;99.90;;;;;;5006413;28;20054;-60
2023/10/12 01:32:58;;;;;;;28.45;12.63;;;8.60;99.90;;;;;;5001676;28;20042;-61
2023/10/12 01:35:27;;;;;;;30.02;12.20;;;8.70;99.90;;;;;;4993919;28;20061;-61
2023/10/12 01:38:00;;;;;;;27.08;12.70;;;8.70;99.90;;;;;;4994090;28;20050;-59
2023/10/12 01:40:41;;;;;;;32.50;12.63;;;8.60;99.90;;;;;;5004231;28;20049;-61
2023/10/12 01:43:12;;;;;;;25.55;11.93;;;8.60;99.90;;;;;;5006391;28;20054;-61
2023/10/12 01:46:07;;;;;;;28.00;11.77;;;8.50;99.90;;;;;;5006424;28;20478;-62
2023/10/12 01:48:35;;;;;;;20.25;10.60;;;8.50;99.90;;;;;;4998792;28;20050;-60
2023/10/12 01:51:09;;;;;;;22.23;10.88;;;8.50;99.90;;;;;;5012092;28;20052;-60
2023/10/12 01:53:40;;;;;;;20.60;10.85;;;8.40;99.90;;;;;;5003728;28;20047;-61
2023/10/12 01:56:09;;;;;;;19.00;10.13;;;8.40;99.90;;;;;;5008594;28;20493;-61
2023/10/12 01:58:43;;;;;;;27.17;10.77;;;8.40;99.90;;;;;;5006566;28;20413;-61
2023/10/12 02:01:18;;;;;;;21.33;10.40;;;8.30;99.90;;;;;;5007668;28;20474;-61
2023/10/12 02:03:54;;;;;;;26.15;11.63;;;8.30;99.90;;;;;;5009381;28;20049;-60
2023/10/12 02:06:28;;;;;;;20.63;11.43;;;8.30;99.90;;;;;;4996597;28;20053;-60
2023/10/12 02:09:02;;;;;;;23.83;12.50;;;8.30;99.90;;;;;;4993057;28;20046;-61
2023/10/12 02:11:42;;;;;;;30.25;12.30;;;8.30;99.90;;;;;;4997456;28;20038;-60
2023/10/12 02:14:21;;;;;;;24.98;12.20;;;8.30;99.90;;;;;;4992262;28;20058;-61
2023/10/12 02:16:55;;;;;;;25.00;13.98;;;8.30;99.90;;;;;;4998109;28;20397;-61
2023/10/12 02:19:31;;;;;;;25.48;13.63;;;8.30;99.90;;;;;;5009942;28;20056;-60
2023/10/12 02:22:04;;;;;;;28.67;12.73;;;8.30;99.90;;;;;;4991788;28;20054;-61
2023/10/12 02:24:35;;;;;;;25.02;12.02;;;8.30;99.90;;;;;;4991097;28;20054;-60
2023/10/12 02:27:04;;;;;;;24.95;12.07;;;8.30;99.90;;;;;;4999176;28;20050;-60
2023/10/12 02:29:35;;;;;;;26.70;12.93;;;8.40;99.90;;;;;;4991950;28;20050;-60
2023/10/12 02:32:17;;;;;;;25.00;12.77;;;8.40;99.90;;;;;;4992764;28;20089;-60
2023/10/12 02:34:46;;;;;;;27.58;12.20;;;8.40;99.90;;;;;;4991659;28;20046;-61
2023/10/12 02:39:43;;;;;;;28.50;12.55;;;8.40;99.90;;;;;;4999204;28;20041;-60
2023/10/12 02:45:09;;;;;;;34.58;13.82;;;8.40;99.90;;;;;;5003649;28;20034;-60
2023/10/12 02:47:31;;;;;;;29.85;14.13;;;8.40;99.90;;;;;;5006662;28;20073;-60
2023/10/12 02:50:21;;;;;;;29.35;13.55;;;8.50;99.90;;;;;;4991235;28;21614;-60
2023/10/12 02:52:51;;;;;;;35.30;14.15;;;8.50;99.90;;;;;;4994662;28;20406;-59
2023/10/12 02:57:59;;;;;;;29.40;13.25;;;8.50;99.90;;;;;;5011167;28;20469;-59
2023/10/12 03:05:58;;;;;;;35.50;16.00;;;8.50;99.90;;;;;;5004762;28;20429;-60
2023/10/12 03:08:30;;;;;;;32.20;14.30;;;8.50;99.90;;;;;;5000176;28;20054;-59
2023/10/12 03:13:34;;;;;;;27.80;14.35;;;8.50;99.90;;;;;;5004438;28;20405;-59
2023/10/12 03:16:22;;;;;;;29.30;15.20;;;8.50;99.90;;;;;;4990940;28;20046;-59
2023/10/12 03:19:35;;;;;;;27.55;15.52;;;8.50;99.90;;;;;;4993591;28;20465;-60
2023/10/12 03:21:46;;;;;;;27.77;13.52;;;8.50;99.90;;;;;;4988612;28;20398;-60
2023/10/12 03:24:15;;;;;;;25.60;11.88;;;8.50;99.90;;;;;;4998437;28;20047;-61
2023/10/12 03:27:17;;;;;;;31.15;14.13;;;8.50;99.90;;;;;;5001569;28;20056;-60
2023/10/12 03:29:43;;;;;;;31.17;14.55;;;8.50;99.90;;;;;;5008411;28;20088;-60
2023/10/12 03:32:12;;;;;;;29.13;13.75;;;8.50;99.90;;;;;;4996845;28;20050;-61
2023/10/12 03:37:14;;;;;;;30.20;13.18;;;8.40;99.90;;;;;;5003142;28;20050;-60
2023/10/12 03:45:08;;;;;;;32.47;16.00;;;8.40;99.90;;;;;;5000414;28;20390;-60
2023/10/12 03:50:27;;;;;;;34.58;15.75;;;8.30;99.90;;;;;;4989001;28;20058;-60
2023/10/12 03:52:54;;;;;;;26.83;14.82;;;8.30;99.90;;;;;;4991909;28;20038;-59
2023/10/12 03:55:28;;;;;;;29.42;14.23;;;8.30;99.90;;;;;;4991723;28;20061;-60
2023/10/12 03:58:14;;;;;;;27.95;14.63;;;8.30;99.90;;;;;;5008142;28;20088;-60
2023/10/12 04:01:05;;;;;;;27.70;14.32;;;8.30;99.90;;;;;;4995773;28;20049;-60
2023/10/12 04:03:37;;;;;;;29.65;13.90;;;8.30;99.90;;;;;;5011131;28;20045;-59
2023/10/12 04:06:15;;;;;;;30.33;14.23;;;8.30;99.90;;;;;;5011731;28;20068;-59
2023/10/12 04:08:51;;;;;;;28.23;14.55;;;8.20;99.90;;;;;;5014954;28;20498;-59
2023/10/12 04:14:53;;;;;;;30.30;14.25;;;8.20;99.90;;;;;;5000993;28;20406;-59
2023/10/12 04:17:06;;;;;;;29.38;14.43;;;8.30;99.90;;;;;;5001912;28;20043;-59
2023/10/12 04:19:34;;;;;;;34.65;14.90;;;8.20;99.90;;;;;;4995230;28;20054;-59
2023/10/12 04:22:16;;;;;;;46.17;15.63;;;8.20;99.90;;;;;;4993278;28;20414;-59
2023/10/12 04:24:45;;;;;;;28.42;12.77;;;8.20;99.90;;;;;;4994685;28;20057;-60
2023/10/12 04:28:10;;;;;;;34.30;14.15;;;8.20;99.90;;;;;;5007141;28;20041;-61
2023/10/12 04:30:42;;;;;;;28.67;12.63;;;8.10;99.90;;;;;;4993601;28;20050;-59
2023/10/12 04:43:39;;;;;;;28.35;14.98;;;8.00;99.90;;;;;;5013577;28;20391;-61
2023/10/12 04:48:41;;;;;;;30.40;13.55;;;7.90;99.90;;;;;;4990688;28;20538;-60
2023/10/12 04:51:19;;;;;;;33.30;14.57;;;7.90;99.90;;;;;;4995972;28;20057;-60
2023/10/12 04:53:57;;;;;;;29.08;14.18;;;7.90;99.90;;;;;;4994829;28;20038;-59
2023/10/12 04:56:26;;;;;;;32.65;15.98;;;7.80;99.90;;;;;;4996352;28;20045;-61
2023/10/12 04:58:57;;;;;;;35.97;15.70;;;7.80;99.90;;;;;;5000633;28;20366;-60
2023/10/12 05:01:59;;;;;;;37.92;15.60;;;7.80;99.90;;;;;;4990996;28;20050;-61
2023/10/12 05:04:35;;;;;;;33.00;14.60;;;7.80;99.90;;;;;;5000809;28;20532;-60
2023/10/12 05:09:49;;;;;;;32.78;14.70;;;7.70;99.90;;;;;;4992220;28;20049;-61
2023/10/12 05:12:18;;;;;;;34.13;14.73;;;7.60;99.90;;;;;;5001135;28;20482;-60
2023/10/12 05:14:46;;;;;;;29.92;14.00;;;7.60;99.90;;;;;;5004681;28;20050;-59
2023/10/12 05:17:14;;;;;;;24.42;13.38;;;7.60;99.90;;;;;;5002056;28;20054;-60
2023/10/12 05:19:42;;;;;;;23.45;13.25;;;7.60;99.90;;;;;;4993174;28;20054;-60
2023/10/12 05:22:11;;;;;;;33.38;13.90;;;7.60;99.90;;;;;;4999049;28;20057;-59
2023/10/12 05:24:39;;;;;;;28.83;14.13;;;7.60;99.90;;;;;;4992670;28;20077;-59
2023/10/12 05:27:19;;;;;;;33.38;14.50;;;7.60;99.90;;;;;;4997433;28;20395;-59
2023/10/12 05:29:52;;;;;;;;;;;7.50;99.90;;;;;;4991984;28;20050;-59
2023/10/12 05:32:24;;;;;;;31.38;14.73;;;7.50;99.90;;;;;;4990624;28;20413;-58
2023/10/12 05:34:52;;;;;;;38.63;15.35;;;7.50;99.90;;;;;;4995568;28;20698;-60
2023/10/12 05:37:37;;;;;;;28.38;14.00;;;7.50;99.90;;;;;;4992215;28;20057;-60
2023/10/12 05:40:13;;;;;;;37.00;14.98;;;7.40;99.90;;;;;;5005502;28;20406;-60
2023/10/12 05:42:45;;;;;;;30.92;14.65;;;7.40;99.90;;;;;;5004887;28;20054;-60
2023/10/12 05:45:21;;;;;;;30.92;14.13;;;7.40;99.90;;;;;;4992192;28;20509;-61
2023/10/12 05:47:52;;;;;;;32.65;15.15;;;7.30;99.90;;;;;;5000823;28;20056;-61
2023/10/12 05:50:23;;;;;;;30.75;14.55;;;7.30;99.90;;;;;;5004258;28;20053;-61
2023/10/12 05:52:53;;;;;;;32.20;15.40;;;7.30;99.90;;;;;;4998830;28;20049;-60
2023/10/12 05:55:21;;;;;;;36.25;16.10;;;7.30;99.90;;;;;;4997145;28;20065;-61
2023/10/12 05:57:49;;;;;;;36.30;15.93;;;7.30;99.90;;;;;;5000169;28;20050;-61
2023/10/12 06:00:36;;;;;;;35.25;15.65;;;7.30;99.90;;;;;;4993880;28;20045;-60
2023/10/12 06:03:05;;;;;;;31.35;15.32;;;7.30;99.90;;;;;;4997728;28;20053;-60
2023/10/12 06:05:34;;;;;;;34.15;15.85;;;7.30;99.90;;;;;;5002720;28;20046;-60
2023/10/12 06:08:03;;;;;;;37.83;15.70;;;7.20;99.90;;;;;;5006730;28;20042;-59
2023/10/12 06:10:31;;;;;;;38.53;15.27;;;7.30;99.90;;;;;;5002285;28;20050;-60
2023/10/12 06:12:59;;;;;;;30.40;14.90;;;7.30;99.90;;;;;;5001615;28;20618;-60
2023/10/12 06:15:28;;;;;;;30.55;14.48;;;7.30;99.90;;;;;;4992767;28;20056;-61
2023/10/12 06:17:57;;;;;;;24.73;13.32;;;7.20;99.90;;;;;;4993165;28;20046;-60
2023/10/12 06:20:36;;;;;;;23.27;13.25;;;7.30;99.90;;;;;;4994951;28;20045;-61
2023/10/12 06:23:13;;;;;;;35.72;13.82;;;7.20;99.90;;;;;;4997254;28;20042;-62
2023/10/12 06:25:44;;;;;;;37.45;13.38;;;7.20;99.90;;;;;;4994782;28;20061;-60
2023/10/12 06:28:32;;;;;;;25.77;13.15;;;7.10;99.90;;;;;;4994301;28;20482;-59
2023/10/12 06:31:01;;;;;;;28.83;13.18;;;7.10;99.90;;;;;;4976999;28;20486;-62
2023/10/12 06:33:33;;;;;;;35.22;14.10;;;7.10;99.90;;;;;;4997731;28;20034;-60
2023/10/12 06:36:01;;;;;;;27.17;13.05;;;7.10;99.90;;;;;;4999884;28;20069;-60
2023/10/12 06:38:47;;;;;;;35.30;13.20;;;7.00;99.90;;;;;;5005598;28;20057;-60
2023/10/12 06:41:29;;;;;;;36.03;13.95;;;7.00;99.90;;;;;;4997389;28;20054;-61
2023/10/12 06:43:57;;;;;;;41.55;13.82;;;7.00;99.90;;;;;;5001862;28;20049;-61
2023/10/12 06:46:27;;;;;;;46.85;14.23;;;7.00;99.90;;;;;;5006977;28;20046;-61
2023/10/12 06:49:00;;;;;;;28.92;14.05;;;7.00;99.90;;;;;;5005715;28;20033;-61
2023/10/12 06:51:28;;;;;;;32.33;14.23;;;7.10;99.90;;;;;;4989184;28;20077;-60
2023/10/12 06:54:07;;;;;;;36.03;14.20;;;7.10;99.90;;;;;;5006294;28;20057;-60
2023/10/12 06:56:39;;;;;;;36.40;13.95;;;7.20;99.90;;;;;;5007202;28;20054;-59
2023/10/12 07:07:15;;;;;;;64.78;17.45;;;7.40;99.90;;;;;;5005765;28;20478;-60
2023/10/12 07:09:44;;;;;;;92.68;18.25;;;7.40;99.90;;;;;;4988858;28;20060;-61
2023/10/12 07:12:14;;;;;;;117.65;18.75;;;7.50;99.90;;;;;;4989751;28;20058;-60
2023/10/12 07:14:53;;;;;;;;;;;7.50;99.90;;;;;;5008742;28;20057;-60
2023/10/12 07:17:34;;;;;;;130.23;19.75;;;7.60;99.90;;;;;;5004085;28;19925;-61
2023/10/12 07:20:03;;;;;;;82.80;17.65;;;7.60;99.90;;;;;;5008219;28;20481;-61
2023/10/12 07:22:37;;;;;;;71.97;16.10;;;7.70;99.90;;;;;;5008106;28;20050;-60
2023/10/12 07:25:07;;;;;;;109.03;18.27;;;7.70;99.90;;;;;;4994325;28;20033;-61
2023/10/12 07:27:49;;;;;;;82.32;18.13;;;7.80;99.90;;;;;;5006265;28;20045;-61
2023/10/12 07:30:42;;;;;;;;;;;7.80;99.90;;;;;;5008633;28;20073;-60
2023/10/12 07:33:11;;;;;;;61.30;16.73;;;7.80;99.90;;;;;;5007811;28;19932;-64
2023/10/12 07:35:42;;;;;;;59.17;16.67;;;7.90;99.90;;;;;;5008076;28;20122;-60
2023/10/12 07:38:15;;;;;;;100.20;17.80;;;7.90;99.90;;;;;;5003470;28;20053;-62
2023/10/12 07:43:41;;;;;;;55.03;17.27;;;7.90;99.90;;;;;;5003092;28;20073;-62
2023/10/12 07:46:24;;;;;;;98.95;19.83;;;7.90;99.90;;;;;;5009486;28;20064;-61
2023/10/12 07:49:10;;;;;;;123.40;19.23;;;7.90;99.90;;;;;;4993740;28;20145;-61
2023/10/12 07:51:54;;;;;;;67.10;16.60;;;7.90;99.90;;;;;;4992621;28;20050;-60
2023/10/12 07:55:07;;;;;;;121.40;19.73;;;8.00;99.90;;;;;;5007069;28;20058;-61
2023/10/12 07:57:14;;;;;;;58.38;19.85;;;8.00;99.90;;;;;;4994350;28;20050;-62
2023/10/12 08:02:59;;;;;;;79.90;21.73;;;8.20;99.90;;;;;;5011839;28;20058;-62
2023/10/12 08:13:26;;;;;;;33.20;16.92;;;8.50;99.90;;;;;;5007444;28;20065;-60
2023/10/12 08:15:56;;;;;;;40.60;16.85;;;8.60;99.90;;;;;;5011598;28;20041;-61
2023/10/12 08:21:32;;;;;;;36.75;15.80;;;8.80;99.90;;;;;;4996579;28;20054;-61
2023/10/12 08:27:20;;;;;;;40.83;18.45;;;8.90;99.90;;;;;;5000544;28;20432;-60
2023/10/12 08:37:56;;;;;;;37.45;19.13;;;9.40;99.90;;;;;;4972450;28;20061;-62
2023/10/12 08:40:27;;;;;;;32.63;18.40;;;9.50;99.90;;;;;;5003613;28;20045;-62
2023/10/12 08:42:55;;;;;;;37.90;17.77;;;9.60;99.90;;;;;;5001590;28;20516;-63
2023/10/12 08:45:26;;;;;;;33.53;17.40;;;9.60;99.90;;;;;;4974417;28;20046;-62
2023/10/12 08:47:59;;;;;;;29.27;15.38;;;9.80;99.90;;;;;;4997498;28;20538;-61
2023/10/12 08:51:09;;;;;;;33.65;14.05;;;9.90;99.90;;;;;;4991518;28;20525;-63
2023/10/12 08:53:27;;;;;;;29.63;13.25;;;10.00;99.90;;;;;;5001576;28;20700;-60
2023/10/12 08:55:55;;;;;;;31.25;13.07;;;10.10;99.90;;;;;;5010898;28;20050;-62
2023/10/12 08:58:39;;;;;;;23.63;13.30;;;10.20;99.90;;;;;;5006474;28;20057;-62
2023/10/12 09:01:07;;;;;;;25.55;12.95;;;10.30;99.90;;;;;;5006891;28;20042;-62
2023/10/12 09:03:44;;;;;;;21.48;10.93;;;10.40;99.90;;;;;;5006954;28;20050;-63
2023/10/12 09:07:03;;;;;;;22.67;9.60;;;10.50;99.90;;;;;;5009848;28;20486;-62
2023/10/12 09:09:01;;;;;;;18.27;7.90;;;10.50;99.90;;;;;;5003046;28;20058;-62
2023/10/12 09:11:41;;;;;;;21.02;7.20;;;10.60;99.90;;;;;;5009422;28;20056;-61
2023/10/12 09:14:16;;;;;;;17.85;7.53;;;10.60;99.90;;;;;;5005722;28;20057;-61
2023/10/12 09:16:43;;;;;;;17.45;6.05;;;10.70;99.90;;;;;;5010443;28;20045;-61
2023/10/12 09:19:26;;;;;;;15.23;6.00;;;10.80;99.90;;;;;;5001139;28;20042;-62
2023/10/12 09:21:59;;;;;;;13.45;4.72;;;10.90;99.90;;;;;;4994793;28;20068;-63
2023/10/12 09:24:35;;;;;;;8.82;3.55;;;10.90;99.90;;;;;;5002409;28;20038;-63
2023/10/12 09:27:15;;;;;;;9.73;3.95;;;11.00;99.90;;;;;;5005425;28;20042;-62
2023/10/12 09:30:25;;;;;;;10.43;4.47;;;11.10;99.90;;;;;;4997985;28;20041;-62
2023/10/12 09:32:56;;;;;;;9.52;3.45;;;11.10;99.90;;;;;;5008751;28;20046;-61
2023/10/12 09:35:38;;;;;;;9.15;2.00;;;11.20;99.90;;;;;;5009864;28;20049;-63
2023/10/12 09:38:08;;;;;;;7.07;2.05;;;11.20;99.90;;;;;;5008559;28;20050;-62
2023/10/12 09:40:39;;;;;;;7.47;2.28;;;11.30;99.90;;;;;;5007658;28;20153;-63
2023/10/12 09:43:15;;;;;;;13.55;2.10;;;11.20;99.90;;;;;;5007912;28;20058;-62
2023/10/12 09:45:45;;;;;;;11.80;2.88;;;11.30;99.90;;;;;;5007738;28;20498;-63
2023/10/12 09:48:29;;;;;;;9.13;2.90;;;11.30;99.90;;;;;;5000118;28;20046;-62
2023/10/12 09:50:57;;;;;;;13.80;2.65;;;11.40;99.90;;;;;;4991142;28;20046;-61
2023/10/12 09:53:39;;;;;;;8.20;2.47;;;11.40;99.90;;;;;;5001934;28;20038;-62
2023/10/12 09:56:24;;;;;;;7.95;1.95;;;11.40;99.90;;;;;;5009907;28;20076;-62
2023/10/12 09:59:03;;;;;;;9.80;2.97;;;11.40;99.90;;;;;;5005173;28;20046;-63
2023/10/12 10:07:24;;;;;;;10.43;2.05;;;11.60;99.90;;;;;;5009513;28;20050;-63
2023/10/12 10:09:56;;;;;;;10.38;2.25;;;11.70;99.90;;;;;;4990072;28;20053;-62
2023/10/12 10:12:35;;;;;;;5.10;1.67;;;11.70;99.90;;;;;;4990924;28;20050;-60
2023/10/12 10:15:10;;;;;;;6.55;1.67;;;11.70;99.90;;;;;;5002683;28;20046;-61
2023/10/12 10:17:47;;;;;;;9.85;2.35;;;11.80;99.90;;;;;;5009040;28;20050;-62
2023/10/12 10:22:57;;;;;;;16.63;2.40;;;11.90;99.90;;;;;;5009089;28;20049;-62
2023/10/12 10:25:47;;;;;;;7.93;2.33;;;12.10;99.90;;;;;;5009533;28;20053;-61
2023/10/12 10:28:24;;;;;;;;;;;12.20;99.90;;;;;;5007057;28;20501;-62
2023/10/12 10:30:56;;;;;;;8.82;2.83;;;12.30;99.90;;;;;;5007017;28;19921;-61
2023/10/12 10:33:26;;;;;;;9.93;2.50;;;12.30;99.90;;;;;;5004255;28;20394;-62
2023/10/12 10:36:13;;;;;;;11.10;2.85;;;12.50;99.90;;;;;;5007765;28;20057;-61
2023/10/12 10:38:53;;;;;;;12.57;2.55;;;12.60;99.90;;;;;;5007555;28;20054;-60
2023/10/12 10:41:38;;;;;;;9.80;2.30;;;12.70;99.90;;;;;;5009144;28;20504;-61
2023/10/12 10:44:15;;;;;;;11.35;2.58;;;12.70;99.90;;;;;;4998317;28;20050;-62
2023/10/12 10:46:57;;;;;;;7.90;1.90;;;12.80;99.90;;;;;;4997944;28;20053;-61
2023/10/12 10:49:31;;;;;;;7.20;1.67;;;12.90;99.90;;;;;;5005311;28;20065;-62
2023/10/12 10:54:38;;;;;;;8.95;1.60;;;13.00;99.90;;;;;;5008683;28;20508;-62
2023/10/12 10:57:24;;;;;;;6.25;1.98;;;13.00;99.90;;;;;;5008248;28;20045;-62
2023/10/12 10:59:52;;;;;;;10.68;1.52;;;13.20;99.90;;;;;;4989902;28;20054;-61
2023/10/12 11:02:22;;;;;;;14.55;1.75;;;13.30;99.90;;;;;;5007149;28;20394;-62
2023/10/12 11:04:57;;;;;;;8.07;1.58;;;13.40;99.90;;;;;;5003671;28;20046;-61
2023/10/12 11:07:25;;;;;;;5.85;1.50;;;13.50;99.90;;;;;;5005996;28;20044;-62
2023/10/12 11:12:31;;;;;;;6.68;1.40;;;13.90;99.90;;;;;;5004672;28;20062;-61
2023/10/12 11:15:19;;;;;;;13.18;1.48;;;14.10;99.90;;;;;;5005454;28;20497;-61
2023/10/12 11:18:17;;;;;;;8.02;1.38;;;14.30;99.90;;;;;;5001819;28;20521;-62
2023/10/12 11:20:43;;;;;;;10.38;1.73;;;14.50;99.90;;;;;;5001374;28;20045;-61
2023/10/12 11:23:14;;;;;;;10.48;1.75;;;14.70;99.90;;;;;;5007887;28;20053;-62
2023/10/12 11:25:48;;;;;;;10.38;1.65;;;14.90;99.90;;;;;;5004045;28;20042;-61
2023/10/12 11:28:20;;;;;;;5.35;1.35;;;15.10;99.90;;;;;;4999803;28;20050;-61
2023/10/12 11:31:01;;;;;;;11.77;2.60;;;15.20;99.90;;;;;;5007439;28;20058;-61
2023/10/12 11:33:30;;;;;;;11.65;2.05;;;15.40;99.90;;;;;;5006652;28;20053;-62
2023/10/12 11:36:03;;;;;;;9.80;2.40;;;15.70;99.90;;;;;;5007957;28;20046;-61
2023/10/12 11:38:31;;;;;;;9.05;1.95;;;15.90;99.90;;;;;;5000885;28;20057;-61
2023/10/12 11:41:12;;;;;;;8.73;1.80;;;16.20;99.90;;;;;;5007854;28;20046;-63
2023/10/12 11:43:53;;;;;;;7.75;1.85;;;16.30;99.90;;;;;;5004658;28;20058;-61
2023/10/12 11:46:23;;;;;;;10.18;1.70;;;16.30;99.90;;;;;;5007912;28;20049;-61
2023/10/12 11:49:04;;;;;;;11.73;1.80;;;16.20;99.90;;;;;;5003369;28;20419;-61
2023/10/12 11:51:39;;;;;;;13.35;2.65;;;16.10;99.90;;;;;;5008313;28;20265;-61
2023/10/12 11:54:19;;;;;;;8.40;1.67;;;15.90;99.90;;;;;;5007213;28;20053;-62
2023/10/12 11:56:49;;;;;;;13.88;1.63;;;15.60;99.90;;;;;;5008037;28;20046;-62
2023/10/12 11:59:27;;;;;;;10.75;1.50;;;15.60;99.90;;;;;;4992647;28;20113;-61
2023/10/12 12:01:57;;;;;;;14.50;2.03;;;15.50;99.90;;;;;;4988545;28;20051;-62
2023/10/12 12:04:32;;;;;;;7.10;1.50;;;15.30;99.90;;;;;;4995946;28;20504;-61
2023/10/12 12:07:02;;;;;;;9.45;1.73;;;15.30;99.90;;;;;;4987260;28;20059;-62
2023/10/12 12:09:30;;;;;;;10.40;1.58;;;15.20;99.90;;;;;;5001742;28;20047;-64
2023/10/12 12:12:00;;;;;;;6.18;1.30;;;15.20;99.90;;;;;;4988381;28;20069;-62
2023/10/12 12:14:28;;;;;;;7.00;1.35;;;15.10;99.90;;;;;;5002161;28;20057;-62
2023/10/12 12:16:56;;;;;;;6.40;1.30;;;15.00;99.90;;;;;;5005322;28;20053;-61
2023/10/12 12:19:24;;;;;;;9.27;1.48;;;14.90;99.90;;;;;;5004360;28;20076;-61
2023/10/12 12:21:53;;;;;;;4.70;1.45;;;14.80;99.90;;;;;;5007603;28;20076;-61
2023/10/12 12:26:50;;;;;;;9.02;1.38;;;14.70;99.90;;;;;;5007876;28;20053;-62
2023/10/12 12:29:26;;;;;;;;;;;14.70;99.90;;;;;;5006491;28;20057;-61
2023/10/12 12:32:03;;;;;;;8.95;2.10;;;14.60;99.90;;;;;;4990849;28;20446;-61
2023/10/12 12:34:47;;;;;;;7.88;1.40;;;14.60;99.90;;;;;;5001420;28;20042;-61
2023/10/12 12:37:19;;;;;;;5.90;1.60;;;14.60;99.90;;;;;;4995965;28;20048;-61
2023/10/12 12:40:13;;;;;;;8.98;2.13;;;14.60;99.90;;;;;;5003247;28;20041;-61
2023/10/12 12:42:39;;;;;;;6.35;2.15;;;14.80;99.90;;;;;;5010774;28;20052;-61
2023/10/12 12:45:08;;;;;;;11.70;1.90;;;14.90;99.90;;;;;;5009409;28;20045;-61
2023/10/12 12:47:39;;;;;;;10.55;1.70;;;15.00;99.90;;;;;;5004469;28;20411;-62
2023/10/12 12:50:08;;;;;;;10.95;1.67;;;15.10;99.90;;;;;;4995199;28;20414;-61
2023/10/12 12:52:36;;;;;;;9.57;1.70;;;15.10;99.90;;;;;;4995990;28;20053;-61
2023/10/12 12:55:10;;;;;;;7.93;1.80;;;15.20;99.90;;;;;;5010791;28;20050;-61
2023/10/12 12:57:38;;;;;;;12.00;2.38;;;15.30;99.90;;;;;;5010688;28;20049;-62
2023/10/12 13:00:08;;;;;;;12.10;1.80;;;15.20;99.90;;;;;;5010652;28;20050;-61
2023/10/12 13:02:37;;;;;;;14.85;2.30;;;15.30;99.90;;;;;;5009634;28;20052;-62
2023/10/12 13:05:07;;;;;;;8.70;1.90;;;15.30;99.90;;;;;;4998184;28;20402;-61
2023/10/12 13:07:35;;;;;;;9.63;2.00;;;15.30;99.90;;;;;;4993921;28;20501;-62
2023/10/12 13:10:06;;;;;;;10.30;1.77;;;15.30;99.90;;;;;;5010576;28;20300;-61
2023/10/12 13:12:34;;;;;;;13.25;2.28;;;15.20;99.90;;;;;;5009530;28;20401;-61
2023/10/12 13:15:02;;;;;;;7.72;1.80;;;15.10;99.90;;;;;;5010398;28;20045;-62
2023/10/12 13:17:30;;;;;;;12.13;1.92;;;15.10;99.90;;;;;;5010439;28;20064;-62
2023/10/12 13:19:58;;;;;;;12.88;2.03;;;15.00;99.90;;;;;;4997135;28;20054;-61
2023/10/12 13:22:26;;;;;;;10.35;2.00;;;14.90;99.90;;;;;;4997373;28;20065;-62
2023/10/12 13:24:58;;;;;;;7.78;2.05;;;14.80;99.90;;;;;;5007237;28;20061;-61
2023/10/12 13:27:32;;;;;;;11.02;1.95;;;14.70;99.90;;;;;;4977605;28;20050;-62
2023/10/12 13:30:07;;;;;;;9.23;2.08;;;14.70;99.90;;;;;;5006123;28;20057;-61
2023/10/12 13:32:38;;;;;;;14.27;2.15;;;14.60;99.90;;;;;;5007207;28;20055;-62
2023/10/12 13:35:55;;;;;;;7.95;2.05;;;14.50;99.90;;;;;;5001208;28;20069;-60
2023/10/12 13:37:58;;;;;;;7.97;1.67;;;14.60;99.90;;;;;;4990686;28;20532;-61
2023/10/12 13:40:26;;;;;;;6.43;1.70;;;14.60;99.90;;;;;;5008952;28;20046;-61
2023/10/12 13:42:53;;;;;;;7.93;1.77;;;14.60;99.90;;;;;;5008577;28;20046;-61
2023/10/12 13:45:22;;;;;;;11.10;1.55;;;14.60;99.90;;;;;;5010450;28;20490;-60
2023/10/12 13:47:51;;;;;;;10.50;1.92;;;14.60;99.90;;;;;;4999939;28;20042;-61
2023/10/12 13:50:19;;;;;;;10.27;2.00;;;14.70;99.90;;;;;;4995249;28;20061;-61
2023/10/12 13:52:47;;;;;;;9.68;1.85;;;14.70;99.90;;;;;;4995897;28;20049;-61
2023/10/12 13:55:15;;;;;;;7.63;1.48;;;14.70;99.90;;;;;;5010250;28;20049;-61
2023/10/12 13:57:51;;;;;;;9.27;2.30;;;14.70;99.90;;;;;;5008637;28;20506;-61
2023/10/12 14:00:25;;;;;;;7.80;1.67;;;14.60;99.90;;;;;;5008518;28;20053;-60
2023/10/12 14:02:56;;;;;;;9.25;1.60;;;14.70;99.90;;;;;;5008296;28;20532;-61
2023/10/12 14:05:28;;;;;;;10.00;2.13;;;14.70;99.90;;;;;;4999180;28;20054;-61
2023/10/12 14:08:00;;;;;;;7.75;1.73;;;14.80;99.90;;;;;;5002953;28;20576;-61
2023/10/12 14:10:29;;;;;;;9.57;1.90;;;14.90;99.90;;;;;;5006327;28;20053;-62
2023/10/12 14:12:59;;;;;;;10.82;2.28;;;15.00;99.90;;;;;;5007617;28;20416;-63
2023/10/12 14:15:27;;;;;;;11.63;1.95;;;15.00;99.90;;;;;;5009514;28;20053;-61
2023/10/12 14:17:56;;;;;;;13.48;2.03;;;15.00;99.90;;;;;;4999145;28;20050;-61
2023/10/12 14:20:26;;;;;;;8.50;2.38;;;14.90;99.90;;;;;;5001019;28;20525;-61
2023/10/12 14:22:58;;;;;;;13.00;2.38;;;14.70;99.90;;;;;;4994635;28;20054;-61
2023/10/12 14:25:28;;;;;;;10.68;2.17;;;14.70;99.90;;;;;;5009128;28;20053;-61
2023/10/12 14:27:59;;;;;;;10.70;2.53;;;14.60;99.90;;;;;;5009116;28;20052;-61
2023/10/12 14:30:30;;;;;;;13.52;2.83;;;14.50;99.90;;;;;;5008161;28;20050;-62
2023/10/12 14:33:02;;;;;;;10.10;2.95;;;14.40;99.90;;;;;;5008781;28;20509;-62
2023/10/12 14:35:31;;;;;;;8.82;2.45;;;14.30;99.90;;;;;;5004005;28;20050;-62
2023/10/12 14:38:02;;;;;;;7.13;2.20;;;14.30;99.90;;;;;;4993679;28;20054;-62
2023/10/12 14:40:31;;;;;;;8.48;2.55;;;14.20;99.90;;;;;;5009092;28;20295;-62
2023/10/12 14:43:06;;;;;;;9.88;2.38;;;14.20;99.90;;;;;;5008119;28;20046;-62
2023/10/12 14:45:49;;;;;;;13.27;2.60;;;14.30;99.90;;;;;;5006254;28;20588;-64
2023/10/12 14:48:17;;;;;;;6.82;2.83;;;14.40;99.90;;;;;;4985156;28;20046;-61
2023/10/12 14:50:47;;;;;;;15.50;2.70;;;14.40;99.90;;;;;;5003198;28;20061;-62
2023/10/12 14:53:21;;;;;;;;;;;14.50;99.90;;;;;;5008722;28;20061;-61
2023/10/12 14:55:52;;;;;;;10.52;2.38;;;14.50;99.90;;;;;;5007677;28;19921;-62
2023/10/12 14:58:21;;;;;;;11.55;2.70;;;14.50;99.90;;;;;;5008677;28;20049;-61
2023/10/12 15:00:50;;;;;;;10.38;2.67;;;14.50;99.90;;;;;;5008846;28;20045;-63